Lake Levels Lake Levels   »   United States   »   Texas
LAKES RIVERS MARINAS NEWS HOUSES EVENTS MAPS
1,681 Lakes:
Lake Store

Lake Levels in Texas, United States

Lake Name Current
Level
Full Pool +/-
Full Pool
Reading
Date - Time
Alan Henry (TX) 2,215.93 2,224.00 -8.07 2/25/2024  12:30 AM
Amistad (TX) 1,052.61 1,117.00 -64.39 2/25/2024  11:15 AM
Amon Carter (TX) 917.76 920.00 -2.24 2/25/2024  11:00 AM
Aquilla (TX) 537.84 537.50 0.34 2/25/2024  11:30 AM
Arlington (TX) 550.00 550.00 -0.00 2/25/2024  12:00 AM
Arrowhead (TX) 917.93 926.00 -8.07 2/25/2024  10:00 AM
Athens (TX) 440.44 440.00 0.44 2/25/2024  11:30 AM
Austin (TX) 492.11 492.80 -0.69 2/25/2024  12:00 PM
Bardwell (TX) 421.87 421.00 0.87 2/25/2024  11:30 AM
Belton (TX) 581.65 594.00 -12.35 2/25/2024  11:00 AM
Benbrook (TX) 694.41 694.00 0.41 2/25/2024  11:00 AM
Bob Sandlin (TX) 337.85 337.50 0.35 2/25/2024  10:00 AM
Bonham (TX) 564.90 565.00 -0.10 2/25/2024  12:00 PM
Brady Creek (TX) 1,729.95 1,743.00 -13.05 2/25/2024  11:45 AM
Bridgeport (TX) 820.67 836.00 -15.33 2/25/2024  11:00 AM
Brownwood (TX) 1,415.76 1,425.00 -9.24 2/25/2024  10:30 AM
Buchanan (TX) 994.42 1,020.50 -26.08 2/25/2024  9:05 AM
Caddo (LA TX) 170.10 168.50 1.60 2/25/2024  6:00 AM
Canyon (TX) 887.68 909.00 -21.32 2/25/2024  6:15 AM
Cedar Creek (TX) 321.86 322.00 -0.14 2/25/2024  11:45 AM
Champion Creek (TX) 2,069.00 2,083.00 -14.00 2/25/2024  7:00:34 AM
Cherokee (TX) 280.30 280.00 0.30 2/25/2024  11:45 AM
Choke Canyon (TX) 192.48 220.50 -28.02 2/25/2024  6:30 AM
Cisco (TX) 1,510.94 1,520.00 -9.06 2/25/2024  5:30 PM
Coleman (TX) 1,708.32 1,718.00 -9.68 2/25/2024  11:30 AM
Coleto Creek (TX) 98.39 98.28 0.11 2/25/2024  11:00 AM
Colorado City (TX) 2,057.00 2,070.20 -13.20 2/25/2024  7:00:34 AM
Conroe (TX) 200.98 201.00 -0.02 2/25/2024  12:00 PM
Corpus Christi (TX) 85.99 94.00 -8.01 2/25/2024  8:17 AM
E. V. Spence (TX) 1,850.78 1,898.00 -47.22 2/25/2024  11:00 AM
Eagle Mountain (TX) 643.10 649.00 -5.90 2/25/2024  11:00 AM
Falcon (TX) 266.47 301.20 -34.73 2/25/2024  8:45 AM
Fork (TX) 402.75 403.00 -0.25 2/25/2024  12:01 PM
Georgetown (TX) 781.57 791.00 -9.43 2/25/2024  10:00 AM
Graham (TX) 1,069.30 1,075.00 -5.70 2/25/2024  10:00 AM
Granbury (TX) 692.56 693.00 -0.44 2/25/2024  9:50 AM
Granger (TX) 504.38 504.00 0.38 2/25/2024  8:00 AM
Grapevine (TX) 535.17 535.00 0.17 2/25/2024  11:45 AM
Hords Creek (TX) 1,879.54 1,900.00 -20.46 2/25/2024  11:30 AM
Houston (TX) 42.42 42.40 0.02 2/25/2024  11:30 AM
Hubbard Creek (TX) 1,171.40 1,183.00 -11.60 2/25/2024  11:15 AM
Hubert M Moss (TX) 714.83 715.00 -0.17 2/25/2024  11:15 AM
Inks (TX) 887.15 886.90 0.25 2/25/2024  12:00 PM
Jacksonville (TX) 422.20 422.00 0.20 2/25/2024  12:00 AM
JB Thomas (TX) 2,226.99 2,258.00 -31.01 2/25/2024  11:45 AM
Jim Chapman (TX) 440.13 440.00 0.13 2/25/2024  10:00 AM
Joe Pool (TX) 522.28 522.00 0.28 2/25/2024  7:00 AM
Kemp (TX) 1,138.97 1,144.00 -5.03 2/25/2024  9:15 AM
Kickapoo (TX) 1,037.46 1,045.00 -7.54 2/25/2024  11:00 AM
Lake O' the Pines (TX) 229.30 228.50 0.80 2/25/2024  10:00 AM
Lavon (TX) 492.35 492.00 0.35 2/25/2024  9:00 AM
Leon (TX) 1,364.61 2/25/2024  11:30 AM
Lewisville (TX) 521.85 522.00 -0.15 2/25/2024  12:15 AM
Limestone (TX) 363.01 363.00 0.01 2/25/2024  12:00 PM
Livingston (TX) 131.01 131.00 0.01 2/25/2024  12:00 AM
Lyndon B. Johnson (TX) 824.72 825.00 -0.28 2/25/2024  9:05 AM
MacKenzie (TX) 3,014.99 3,100.00 -85.01 2/25/2024  10:30 AM
Marble Falls (TX) 736.35 737.00 -0.65 2/25/2024  9:05 AM
Martin Creek (TX) 306.07 306.00 0.07 2/25/2024  10:30 AM
Medina (TX) 974.12 1,062.00 -87.88 2/25/2024  7:00 AM
Meredith (TX) 2,891.24 2,941.00 -49.76 2/25/2024  11:30 AM
Mexia (TX) 448.35 448.30 0.05 2/25/2024  12:00 PM
Millers Creek (TX) 1,325.80 1,334.00 -8.20 2/25/2024  11:00 AM
Mineral Wells (TX) 862.01 863.00 -0.99 2/25/2024  3:30 PM
Moss Creek (TX) 2,331.89 2,337.00 -5.11 2/25/2024  11:45 AM
Mountain Creek (TX) 457.42 457.00 0.42 2/25/2024  11:45 AM
Murvaul (TX) 265.45 265.50 -0.05 2/25/2024  10:00 AM
Nacogdoches (TX) 278.92 279.00 -0.08 2/25/2024  10:00 AM
Natural Dam Salt (TX) 2,447.29 2,457.00 -9.71 2/25/2024  12:00 AM
Navarro Mills (TX) 424.90 424.50 0.40 2/25/2024  10:00 AM
Nocona (TX) 821.78 827.00 -5.22 2/25/2024  11:00 AM
O. C. Fisher (TX) 1,856.79 1,908.00 -51.21 2/25/2024  11:00 AM
O.H. Ivie (TX) 1,520.63 1,551.50 -30.87 2/25/2024  11:45 AM
Oak Creek (TX) 1,983.98 2,000.00 -16.02 2/25/2024  12:00 AM
Palestine (TX) 345.09 345.00 0.09 2/25/2024  11:00 AM
Palo Pinto (TX) 857.42 867.00 -9.58 2/25/2024  11:15 AM
Pat Cleburne (TX) 733.86 733.60 0.26 2/25/2024  11:00 AM
Pat Mayse (TX) 450.08 451.00 -0.92 2/25/2024  10:00 AM
Phantom Hill (TX) 1,629.30 1,635.90 -6.60 2/25/2024  11:30 AM
Possum Kingdom (TX) 998.68 1,000.00 -1.32 2/25/2024  11:45 AM
Proctor (TX) 1,149.08 1,162.00 -12.92 2/25/2024  11:30 AM
Ray Hubbard (TX) 435.46 435.50 -0.04 2/25/2024  10:45 AM
Ray Roberts (TX) 632.04 632.50 -0.46 2/25/2024  10:15 AM
Red Bluff (TX) 2,812.44 2,827.13 -14.69 2/25/2024  11:15 AM
Richland Chambers (TX) 315.13 315.00 0.13 2/25/2024  11:45 AM
Sam Rayburn (TX) 163.15 164.40 -1.25 2/25/2024  11:46 AM
Somerville (TX) 238.25 238.00 0.25 2/25/2024  12:00 AM
Squaw Creek (TX) 774.96 775.00 -0.04 2/25/2024  12:00 PM
Stamford (TX) 1,413.59 1,417.00 -3.41 2/25/2024  11:30 AM
Steinhagen Reservoir (TX) 82.59 82.40 0.19 2/25/2024  11:00 AM
Stillhouse Hollow (TX) 605.26 622.00 -16.74 2/25/2024  10:00 AM
Striker (TX) 292.89 292.93 -0.04 2/25/2024  11:45 AM
Tawakoni (TX) 437.85 437.50 0.35 2/25/2024  11:15 AM
Texana (TX) 43.91 44.00 -0.09 2/25/2024  11:00 AM
Texoma (TX) 616.15 617.00 -0.85 2/25/2024  11:00 AM
Toledo Bend (TX LA) 171.23 172.00 -0.77 2/25/2024  11:30 AM
Travis (TX) 631.89 681.00 -49.11 2/25/2024  11:00 AM
Twin Buttes (TX) 1,907.87 1,940.00 -32.13 2/25/2024  12:00 AM
Tyler (TX) 375.51 375.50 0.01 2/25/2024  12:00 AM
Waco (TX) 462.52 462.00 0.52 2/25/2024  11:15 AM
Waxahachie (TX) 531.90 2/25/2024  12:00 AM
Weatherford (TX) 888.66 896.00 -7.34 2/25/2024  2:45 AM
White River (TX) 2,352.94 2/25/2024  11:15 AM
Whitney (TX) 533.82 533.00 0.82 2/25/2024  8:15 AM
Worth (TX) 590.93 594.00 -3.07 2/25/2024  9:00 AM
Wright Patman (TX) 224.35 220.60 3.75 2/25/2024  10:00 AM


CURRENT DAILY STREAMFLOW CONDITIONS
High
90th percentile
75th - 89th percentile
25th - 74th percentile
10th - 24th percentile
10th percentile
Low
Not ranked

The colored dots on this map depict streamflow conditions as a percentile, which is computed from the period of record for the current day of the year. Only stations with at least 30 years of record are used. The gray circles indicate other stations that were not ranked in percentiles either because they have fewer than 30 years of record or because they report parameters other than streamflow. Some stations, for example, measure stage only.
U.S. Daily Streamflow Conditions



U.S. Drought Monitor